Time;durP1;ratioP1;P1;durP2;ratioP2;P2;SDS_P1;SDS_P2;PMS_P1;PMS_P2;Temp;Humidity;BMP_temperature;BMP_pressure;BME280_temperature;BME280_humidity;BME280_pressure;Samples;Min_cycle;Max_cycle;Signal;HPM_P1;HPM_P2
2023/04/07 00:01:43;;;;;;;4.30;3.60;;;8.80;99.90;;;8.83;nan;100641.72;4951802;28;20612;-65
2023/04/07 00:04:11;;;;;;;3.37;2.80;;;8.70;99.90;;;8.75;nan;100652.63;4941476;28;20655;-66
2023/04/07 00:06:39;;;;;;;2.03;0.90;;;8.60;99.90;;;8.74;nan;100643.13;4967039;28;20690;-66
2023/04/07 00:09:06;;;;;;;5.93;3.97;;;8.60;99.90;;;8.75;nan;100642.22;4951228;28;21028;-66
2023/04/07 00:11:33;;;;;;;3.90;3.40;;;8.60;99.90;;;8.74;nan;100645.75;4952142;29;20682;-66
2023/04/07 00:14:00;;;;;;;3.67;2.40;;;8.60;99.90;;;8.70;nan;100639.06;4952452;28;20663;-67
2023/04/07 00:16:27;;;;;;;5.73;3.37;;;8.60;99.90;;;8.67;nan;100635.84;4953163;28;21271;-65
2023/04/07 00:18:54;;;;;;;3.90;2.80;;;8.50;99.90;;;8.66;nan;100639.34;4955231;28;20640;-66
2023/04/07 00:21:21;;;;;;;3.50;3.10;;;8.50;99.90;;;8.69;nan;100629.59;4954099;28;20635;-66
2023/04/07 00:23:48;;;;;;;3.43;2.90;;;8.60;99.90;;;8.70;nan;100633.88;4953607;29;20620;-67
2023/04/07 00:26:15;;;;;;;2.83;1.63;;;8.60;99.90;;;8.76;nan;100636.06;4954037;28;20648;-67
2023/04/07 00:28:41;;;;;;;4.30;2.90;;;8.60;99.90;;;8.73;nan;100625.84;4953706;29;20665;-69
2023/04/07 00:31:08;;;;;;;4.47;3.40;;;8.60;99.90;;;8.73;nan;100625.84;4935982;29;21040;-67
2023/04/07 00:33:35;;;;;;;6.73;3.80;;;8.60;99.90;;;8.74;nan;100619.72;4939502;28;20632;-66
2023/04/07 00:36:03;;;;;;;3.40;2.50;;;8.60;99.90;;;8.74;nan;100614.53;4955699;28;20991;-67
2023/04/07 00:38:30;;;;;;;3.83;3.37;;;8.60;99.90;;;8.68;nan;100604.53;4954455;28;20667;-66
2023/04/07 00:41:00;;;;;;;4.90;2.23;;;8.60;99.90;;;8.65;nan;100594.31;4955079;28;20636;-66
2023/04/07 00:43:29;;;;;;;2.70;2.13;;;8.50;99.90;;;8.65;nan;100594.31;4939328;29;21209;-68
2023/04/07 00:45:57;;;;;;;3.13;2.90;;;8.50;99.90;;;8.67;nan;100595.03;4950432;28;20628;-64
2023/04/07 00:48:24;;;;;;;2.30;1.83;;;8.50;99.90;;;8.64;nan;100586.59;4947351;29;20660;-67
2023/04/07 00:50:51;;;;;;;4.10;1.50;;;8.50;99.90;;;8.60;nan;100586.78;4955421;28;20914;-67
2023/04/07 00:53:19;;;;;;;5.77;3.23;;;8.50;99.90;;;8.58;nan;100586.06;4951073;28;20652;-67
2023/04/07 00:55:46;;;;;;;6.80;2.00;;;8.50;99.90;;;8.60;nan;100585.97;4947516;28;21012;-67
2023/04/07 00:58:13;;;;;;;1.33;0.50;;;8.50;99.90;;;8.59;nan;100584.28;4945829;29;21009;-67
2023/04/07 01:01:00;;;;;;;5.20;3.37;;;8.50;99.90;;;8.57;nan;100575.75;4954113;28;21027;-66
2023/04/07 01:03:36;;;;;;;2.23;1.87;;;8.50;99.90;;;8.57;nan;100571.41;4944641;28;20640;-66
2023/04/07 01:06:07;;;;;;;1.27;0.67;;;8.50;99.90;;;8.56;nan;100572.31;4953268;29;21216;-66
2023/04/07 01:08:57;;;;;;;5.73;3.53;;;8.50;99.90;;;8.55;nan;100569.81;4951348;28;20891;-66
2023/04/07 01:11:28;;;;;;;2.60;2.42;;;8.50;99.90;;;8.53;nan;100574.28;4969142;28;20639;-66
2023/04/07 01:13:58;;;;;;;2.97;2.27;;;8.40;99.90;;;8.54;nan;100561.19;4951275;28;20287;-67
2023/04/07 01:16:49;;;;;;;3.00;2.70;;;8.40;99.90;;;8.55;nan;100567.22;4929301;29;20620;-66
2023/04/07 01:19:35;;;;;;;6.97;2.93;;;8.40;99.90;;;8.55;nan;100557.66;4951686;28;20636;-66
2023/04/07 01:22:11;;;;;;;6.97;4.50;;;8.40;99.90;;;8.53;nan;100558.69;4952559;29;20628;-67
2023/04/07 01:24:59;;;;;;;5.63;3.00;;;8.40;99.90;;;8.51;nan;100553.59;4954703;28;20646;-66
2023/04/07 01:28:00;;;;;;;3.70;3.17;;;8.40;99.90;;;8.52;nan;100546.59;4951552;28;20659;-67
2023/04/07 01:30:34;;;;;;;3.47;3.13;;;8.40;99.90;;;8.54;nan;100542.13;4953631;29;20651;-66
2023/04/07 01:33:02;;;;;;;7.40;3.00;;;8.40;99.90;;;8.57;nan;100555.81;4969393;28;20655;-66
2023/04/07 01:35:34;;;;;;;1.20;1.10;;;8.40;99.90;;;8.57;nan;100552.34;4953278;28;20632;-67
2023/04/07 01:38:02;;;;;;;4.93;2.50;;;8.50;99.90;;;8.62;nan;100546.88;4968696;28;21286;-66
2023/04/07 01:40:29;;;;;;;7.07;3.80;;;8.50;99.90;;;8.59;nan;100542.69;4953072;29;20658;-66
2023/04/07 01:42:57;;;;;;;3.20;2.17;;;8.50;99.90;;;8.60;nan;100539.16;4953616;28;20632;-66
2023/04/07 01:45:26;;;;;;;4.00;3.30;;;8.50;99.90;;;8.59;nan;100547.88;4952231;28;20636;-66
2023/04/07 01:47:54;;;;;;;4.27;2.57;;;8.50;99.90;;;8.57;nan;100547.16;4997269;23;20686;-65
2023/04/07 01:50:22;;;;;;;6.13;4.30;;;8.50;99.90;;;8.59;nan;100532.28;4969184;28;20670;-66
2023/04/07 01:52:49;;;;;;;4.33;2.60;;;8.50;99.90;;;8.57;nan;100528.94;4955049;28;20639;-66
2023/04/07 01:55:16;;;;;;;1.57;1.33;;;8.50;99.90;;;8.57;nan;100528.94;4971463;28;21248;-67
2023/04/07 01:57:43;;;;;;;10.20;1.67;;;8.50;99.90;;;8.53;nan;100530.94;4989872;28;21294;-67
2023/04/07 02:00:11;;;;;;;5.27;4.10;;;8.50;99.90;;;8.54;nan;100527.38;4991417;28;20630;-67
2023/04/07 02:02:43;;;;;;;3.80;3.30;;;8.40;99.90;;;8.56;nan;100532.50;4989845;28;20680;-66
2023/04/07 02:05:14;;;;;;;2.80;1.77;;;8.40;99.90;;;8.56;nan;100525.50;4991480;28;20646;-66
2023/04/07 02:08:03;;;;;;;7.23;5.10;;;8.50;99.90;;;8.55;nan;100523.84;4990014;28;20699;-66
2023/04/07 02:10:34;;;;;;;3.13;2.83;;;8.40;99.90;;;8.56;nan;100524.69;4991912;28;20674;-66
2023/04/07 02:13:04;;;;;;;4.70;3.47;;;8.40;99.90;;;8.54;nan;100529.97;4992342;28;20610;-67
2023/04/07 02:15:31;;;;;;;3.17;2.93;;;8.40;99.90;;;8.57;nan;100528.94;4991560;28;20720;-67
2023/04/07 02:18:00;;;;;;;3.60;2.57;;;8.50;99.90;;;8.54;nan;100518.72;4981864;28;20669;-67
2023/04/07 02:20:28;;;;;;;3.57;3.00;;;8.40;99.90;;;8.44;nan;100513.31;4986614;28;20651;-66
2023/04/07 02:22:55;;;;;;;6.77;4.33;;;8.40;99.90;;;8.45;nan;100521.97;4967151;28;20636;-66
2023/04/07 02:25:28;;;;;;;4.30;2.53;;;8.30;99.90;;;8.43;nan;100521.22;4974753;28;21207;-66
2023/04/07 02:27:58;;;;;;;3.20;2.90;;;8.30;99.90;;;8.43;nan;100516.84;4992585;28;20662;-67
2023/04/07 02:30:26;;;;;;;4.70;3.50;;;8.30;99.90;;;8.44;nan;100523.72;4990898;28;20716;-66
2023/04/07 02:32:53;;;;;;;5.90;3.20;;;8.30;99.90;;;8.40;nan;100513.63;4990794;28;20670;-66
2023/04/07 02:35:20;;;;;;;15.00;5.60;;;8.30;99.90;;;8.41;nan;100517.91;4974620;28;21007;-66
2023/04/07 02:37:47;;;;;;;5.97;4.57;;;8.30;99.90;;;8.37;nan;100519.84;4987371;28;21262;-65
2023/04/07 02:40:14;;;;;;;4.30;3.40;;;8.30;99.90;;;8.38;nan;100518.06;4991328;28;20696;-66
2023/04/07 02:42:42;;;;;;;1.80;1.50;;;8.30;99.90;;;8.38;nan;100512.88;4991471;28;20629;-67
2023/04/07 02:45:10;;;;;;;5.97;3.63;;;8.30;99.90;;;8.37;nan;100512.03;4990207;28;20692;-66
2023/04/07 02:47:39;;;;;;;3.87;1.70;;;8.30;99.90;;;8.34;nan;100508.81;4985382;28;20678;-66
2023/04/07 02:50:07;;;;;;;6.70;3.93;;;8.20;99.90;;;8.32;nan;100513.28;4968874;28;20738;-66
2023/04/07 02:52:34;;;;;;;6.53;3.97;;;8.20;99.90;;;8.26;nan;100514.50;4982467;28;20658;-66
2023/04/07 02:55:01;;;;;;;3.70;1.97;;;8.20;99.90;;;8.26;nan;100511.88;4978246;28;20638;-66
2023/04/07 02:57:28;;;;;;;3.10;2.70;;;8.10;99.90;;;8.27;nan;100517.94;4971152;28;20647;-65
2023/04/07 02:59:56;;;;;;;5.60;3.33;;;8.10;99.90;;;8.23;nan;100501.69;4985452;28;20638;-66
2023/04/07 03:02:24;;;;;;;5.07;3.43;;;8.10;99.90;;;8.22;nan;100510.38;4978846;28;20640;-66
2023/04/07 03:04:52;;;;;;;3.20;2.20;;;8.10;99.90;;;8.19;nan;100507.16;4969801;28;21068;-66
2023/04/07 03:07:19;;;;;;;3.30;1.80;;;8.10;99.90;;;8.10;nan;100497.34;4973867;28;20725;-66
2023/04/07 03:09:46;;;;;;;5.33;3.43;;;8.00;99.90;;;8.07;nan;100502.75;4971601;28;20667;-67
2023/04/07 03:12:13;;;;;;;6.20;4.20;;;8.00;99.90;;;8.02;nan;100494.41;4970522;28;21157;-67
2023/04/07 03:14:40;;;;;;;7.15;4.20;;;7.90;99.90;;;7.99;nan;100495.44;4976078;28;20626;-67
2023/04/07 03:17:07;;;;;;;4.67;3.37;;;7.90;99.90;;;7.99;nan;100490.22;4975494;28;20213;-66
2023/04/07 03:19:34;;;;;;;3.47;3.13;;;7.90;99.90;;;7.99;nan;100494.59;4965929;28;20671;-66
2023/04/07 03:22:01;;;;;;;5.30;3.80;;;7.90;99.90;;;7.99;nan;100490.22;4972339;28;20635;-68
2023/04/07 03:24:29;;;;;;;5.20;3.10;;;7.90;99.90;;;8.00;nan;100488.47;4974356;28;21005;-67
2023/04/07 03:26:56;;;;;;;5.17;3.83;;;7.90;99.90;;;8.07;nan;100487.16;4952593;28;20627;-67
2023/04/07 03:29:23;;;;;;;4.00;3.27;;;7.90;99.90;;;8.12;nan;100479.88;4951241;28;20645;-67
2023/04/07 03:31:50;;;;;;;5.97;3.83;;;8.00;99.90;;;8.16;nan;100478.75;4953053;28;21035;-66
2023/04/07 03:34:17;;;;;;;4.53;3.33;;;8.10;99.90;;;8.19;nan;100475.97;4965215;28;20634;-66
2023/04/07 03:36:44;;;;;;;5.10;3.63;;;8.00;99.90;;;8.24;nan;100479.13;4975602;28;20631;-66
2023/04/07 03:39:11;;;;;;;5.10;3.60;;;8.10;99.90;;;8.26;nan;100485.09;4972711;28;21314;-66
2023/04/07 03:41:37;;;;;;;5.10;3.20;;;8.20;99.90;;;8.29;nan;100482.28;4970112;28;20623;-66
2023/04/07 03:44:05;;;;;;;5.07;3.27;;;8.20;99.90;;;8.31;nan;100488.19;4965902;28;20702;-66
2023/04/07 03:46:32;;;;;;;4.03;3.43;;;8.20;99.90;;;8.33;nan;100491.53;4968151;28;20627;-66
2023/04/07 03:48:59;;;;;;;5.47;4.07;;;8.20;99.90;;;8.33;nan;100494.97;4969042;28;21092;-66
2023/04/07 03:51:26;;;;;;;4.77;3.77;;;8.20;99.90;;;8.35;nan;100492.25;4969538;28;20659;-65
2023/04/07 03:53:53;;;;;;;3.47;2.93;;;8.20;99.90;;;8.37;nan;100485.19;4961474;28;21064;-66
2023/04/07 03:56:21;;;;;;;3.17;2.90;;;8.20;99.90;;;8.38;nan;100485.13;4981992;28;21223;-66
2023/04/07 03:58:48;;;;;;;3.93;3.60;;;8.30;99.90;;;8.42;nan;100496.16;4974049;28;20646;-66
2023/04/07 04:01:15;;;;;;;8.80;4.70;;;8.30;99.90;;;8.45;nan;100494.16;4970769;28;20636;-66
2023/04/07 04:03:42;;;;;;;7.10;3.43;;;8.30;99.90;;;8.48;nan;100493.97;4970370;28;20628;-66
2023/04/07 04:06:10;;;;;;;3.80;3.13;;;8.40;99.90;;;8.48;nan;100490.53;4987434;28;20646;-66
2023/04/07 04:08:37;;;;;;;5.77;4.17;;;8.40;99.90;;;8.49;nan;100489.63;4979174;28;20725;-66
2023/04/07 04:11:04;;;;;;;2.67;2.37;;;8.40;99.90;;;8.50;nan;100494.72;4978197;28;20666;-66
2023/04/07 04:13:31;;;;;;;4.00;3.60;;;8.40;99.90;;;8.54;nan;100495.34;4994826;28;20610;-66
2023/04/07 04:15:58;;;;;;;5.63;4.07;;;8.40;99.90;;;8.53;nan;100502.31;4978681;28;20691;-67
2023/04/07 04:18:25;;;;;;;6.50;4.10;;;8.50;99.90;;;8.46;nan;100495.00;4976266;28;20667;-66
2023/04/07 04:20:52;;;;;;;3.63;3.17;;;8.40;99.90;;;8.47;nan;100492.31;4976955;28;21064;-66
2023/04/07 04:23:19;;;;;;;5.37;3.03;;;8.30;99.90;;;8.45;nan;100501.16;4989402;28;21344;-66
2023/04/07 04:25:46;;;;;;;5.73;4.10;;;8.30;99.90;;;8.43;nan;100497.81;4956016;28;20985;-67
2023/04/07 04:28:12;;;;;;;7.77;3.70;;;8.30;99.90;;;8.46;nan;100497.59;4975404;28;21228;-67
2023/04/07 04:30:40;;;;;;;3.33;3.03;;;8.40;99.90;;;8.43;nan;100496.03;4974671;28;20697;-67
2023/04/07 04:33:07;;;;;;;4.97;3.47;;;8.30;99.90;;;8.42;nan;100491.78;4974591;28;21181;-67
2023/04/07 04:35:34;;;;;;;4.90;3.27;;;8.30;99.90;;;8.43;nan;100490.03;4975517;28;20627;-67
2023/04/07 04:38:01;;;;;;;7.43;4.23;;;8.30;99.90;;;8.41;nan;100492.69;4973342;28;20705;-68
2023/04/07 04:40:28;;;;;;;5.00;2.67;;;8.30;99.90;;;8.43;nan;100490.84;4975552;28;21184;-67
2023/04/07 04:42:55;;;;;;;3.07;2.80;;;8.30;99.90;;;8.42;nan;100494.38;4984387;28;20699;-68
2023/04/07 04:45:22;;;;;;;3.87;3.07;;;8.30;99.90;;;8.38;nan;100502.47;4994803;28;20641;-68
2023/04/07 04:47:49;;;;;;;7.57;3.97;;;8.30;99.90;;;8.36;nan;100493.94;4976367;28;20718;-68
2023/04/07 04:50:16;;;;;;;4.43;4.00;;;8.20;99.90;;;8.38;nan;100492.06;4972448;28;21468;-65
2023/04/07 04:52:43;;;;;;;3.50;3.17;;;8.30;99.90;;;8.38;nan;100492.91;4974009;28;20730;-66
2023/04/07 04:55:10;;;;;;;7.40;3.83;;;8.30;99.90;;;8.38;nan;100492.06;4973802;28;21184;-66
2023/04/07 04:57:40;;;;;;;4.73;3.43;;;8.30;99.90;;;8.38;nan;100492.06;4988818;28;20669;-66
2023/04/07 05:00:08;;;;;;;4.45;3.20;;;8.30;99.90;;;8.39;nan;100493.75;4994459;28;20605;-67
2023/04/07 05:02:36;;;;;;;5.60;3.40;;;8.30;99.90;;;8.40;nan;100498.84;4991573;28;20199;-67
2023/04/07 05:05:04;;;;;;;4.03;3.60;;;8.30;99.90;;;8.40;nan;100508.41;4989800;28;20666;-66
2023/04/07 05:07:31;;;;;;;6.60;3.43;;;8.30;99.90;;;8.42;nan;100502.19;4992889;28;20641;-66
2023/04/07 05:09:58;;;;;;;4.67;3.90;;;8.30;99.90;;;8.43;nan;100501.22;4991994;28;21337;-66
2023/04/07 05:12:26;;;;;;;7.23;3.50;;;8.30;99.90;;;8.48;nan;100498.34;4985579;28;21169;-66
2023/04/07 05:14:53;;;;;;;2.87;2.60;;;8.40;99.90;;;8.49;nan;100505.22;4978434;28;20638;-66
2023/04/07 05:17:20;;;;;;;5.43;4.20;;;8.40;99.90;;;8.48;nan;100498.34;4982112;28;20654;-66
2023/04/07 05:19:47;;;;;;;3.47;2.23;;;8.40;99.90;;;8.48;nan;100493.13;4971321;28;20635;-66
2023/04/07 05:22:14;;;;;;;7.03;3.67;;;8.40;99.90;;;8.46;nan;100495.00;4966497;28;20720;-66
2023/04/07 05:24:41;;;;;;;4.77;3.10;;;8.40;99.90;;;8.47;nan;100496.69;4968718;28;20687;-66
2023/04/07 05:27:08;;;;;;;5.73;3.53;;;8.40;99.90;;;8.47;nan;100491.50;4972517;28;20643;-66
2023/04/07 05:29:35;;;;;;;5.47;3.17;;;8.40;99.90;;;8.49;nan;100487.03;4970292;28;20638;-66
2023/04/07 05:32:05;;;;;;;6.50;3.37;;;8.40;99.90;;;8.51;nan;100485.16;4970461;28;20667;-66
2023/04/07 05:34:32;;;;;;;4.40;3.40;;;8.40;99.90;;;8.57;nan;100489.94;4982463;28;20642;-66
2023/04/07 05:36:59;;;;;;;3.90;3.33;;;8.50;99.90;;;8.56;nan;100485.69;4970388;28;20623;-68
2023/04/07 05:39:26;;;;;;;5.70;3.80;;;8.50;99.90;;;8.57;nan;100488.19;4969422;28;20624;-66
2023/04/07 05:41:53;;;;;;;5.80;4.40;;;8.50;99.90;;;8.60;nan;100489.75;4954723;29;20619;-66
2023/04/07 05:44:20;;;;;;;5.07;3.77;;;8.50;99.90;;;8.65;nan;100492.88;4990304;28;21266;-66
2023/04/07 05:46:46;;;;;;;4.20;3.17;;;8.50;99.90;;;8.70;nan;100495.16;4978890;28;20643;-66
2023/04/07 05:49:14;;;;;;;3.27;3.00;;;8.60;99.90;;;8.72;nan;100496.72;4949616;28;21287;-66
2023/04/07 05:51:46;;;;;;;3.33;3.03;;;8.60;99.90;;;8.75;nan;100493.94;4970495;28;20671;-66
2023/04/07 05:54:15;;;;;;;5.50;3.53;;;8.70;99.90;;;8.74;nan;100489.66;4964634;28;21084;-66
2023/04/07 05:56:42;;;;;;;4.00;3.60;;;8.70;99.90;;;8.78;nan;100495.47;4972660;28;21189;-66
2023/04/07 05:59:09;;;;;;;6.00;3.60;;;8.70;99.90;;;8.83;nan;100502.06;4970519;28;21033;-66
2023/04/07 06:01:36;;;;;;;3.73;3.27;;;8.70;99.90;;;8.86;nan;100504.44;4973519;28;20654;-66
2023/04/07 06:04:03;;;;;;;4.40;3.37;;;8.80;99.90;;;8.96;nan;100509.88;4978009;28;20642;-66
2023/04/07 06:06:30;;;;;;;4.43;2.87;;;8.80;99.90;;;8.98;nan;100508.84;4981050;28;20712;-65
2023/04/07 06:08:57;;;;;;;6.17;3.73;;;8.90;99.90;;;8.93;nan;100510.91;4972373;28;20674;-67
2023/04/07 06:11:26;;;;;;;6.40;4.10;;;8.80;99.90;;;8.93;nan;100510.06;4975104;28;20716;-67
2023/04/07 06:13:52;;;;;;;3.90;3.60;;;8.80;99.90;;;9.00;nan;100511.34;4973040;28;20623;-68
2023/04/07 06:16:19;;;;;;;3.27;2.80;;;8.90;99.90;;;9.11;nan;100509.69;4971725;28;20639;-67
2023/04/07 06:18:47;;;;;;;6.63;3.60;;;9.00;99.90;;;9.19;nan;100509.16;4968859;28;20663;-67
2023/04/07 06:21:14;;;;;;;4.60;3.50;;;9.10;99.90;;;9.25;nan;100521.75;4973634;28;20634;-67
2023/04/07 06:23:41;;;;;;;9.43;4.77;;;9.10;99.90;;;9.32;nan;100517.81;4978156;28;20635;-67
2023/04/07 06:26:10;;;;;;;9.87;4.10;;;9.20;99.90;;;9.38;nan;100517.38;4972653;28;20685;-67
2023/04/07 06:28:38;;;;;;;6.37;2.50;;;9.30;99.90;;;9.32;nan;100518.66;4982636;28;20659;-67
2023/04/07 06:31:07;;;;;;;8.23;4.40;;;9.20;99.90;;;9.36;nan;100527.91;4972195;28;20651;-67
2023/04/07 06:33:34;;;;;;;6.30;4.00;;;9.30;99.90;;;9.46;nan;100522.03;4987294;28;20627;-67
2023/04/07 06:36:01;;;;;;;4.67;4.20;;;9.40;99.90;;;9.46;nan;100522.88;4972965;28;20627;-66
2023/04/07 06:38:28;;;;;;;5.70;4.23;;;9.40;99.90;;;9.49;nan;100516.63;4971788;28;20651;-65
2023/04/07 06:40:55;;;;;;;3.07;2.80;;;9.40;99.90;;;9.56;nan;100520.50;4981540;28;20639;-66
2023/04/07 06:43:22;;;;;;;5.57;3.80;;;9.40;99.90;;;9.71;nan;100519.44;4972411;28;20623;-67
2023/04/07 06:45:49;;;;;;;7.07;3.90;;;9.60;99.90;;;9.79;nan;100515.34;4971552;28;20682;-66
2023/04/07 06:48:16;;;;;;;5.60;3.70;;;9.70;99.90;;;9.99;nan;100512.16;4970499;28;20678;-65
2023/04/07 06:50:48;;;;;;;3.20;2.80;;;9.90;99.90;;;10.13;nan;100519.03;4968310;28;21050;-64
2023/04/07 06:53:15;;;;;;;4.03;3.60;;;10.00;99.90;;;10.21;nan;100518.44;4984737;28;20635;-66
2023/04/07 06:55:42;;;;;;;6.13;3.10;;;10.10;99.90;;;10.26;nan;100511.97;4978855;28;20648;-66
2023/04/07 06:58:09;;;;;;;3.93;3.27;;;10.10;99.90;;;10.39;nan;100517.94;4970412;28;20655;-66
2023/04/07 07:00:36;;;;;;;6.33;3.60;;;10.20;99.90;;;10.48;nan;100514.69;4971000;28;20992;-66
2023/04/07 07:03:03;;;;;;;4.50;3.67;;;10.40;99.90;;;10.54;nan;100516.81;4971477;28;20642;-67
2023/04/07 07:05:30;;;;;;;3.83;3.47;;;10.40;99.90;;;10.67;nan;100520.19;4972205;28;20626;-65
2023/04/07 07:07:57;;;;;;;6.57;3.80;;;10.50;99.90;;;10.87;nan;100516.13;4971598;28;21287;-66
2023/04/07 07:10:24;;;;;;;5.30;3.37;;;10.70;99.90;;;11.00;nan;100511.66;4972588;28;20681;-65
2023/04/07 07:12:51;;;;;;;3.83;3.50;;;10.90;99.90;;;11.13;nan;100512.38;4969786;28;20659;-67
2023/04/07 07:15:18;;;;;;;4.20;3.37;;;11.10;99.90;;;11.18;nan;100514.66;4966976;28;20682;-66
2023/04/07 07:17:45;;;;;;;4.73;3.63;;;11.10;99.90;;;11.27;nan;100514.75;4971617;28;20661;-66
2023/04/07 07:20:12;;;;;;;5.00;3.90;;;11.20;99.90;;;11.31;nan;100523.19;4967426;28;20640;-66
2023/04/07 07:22:40;;;;;;;4.40;3.30;;;11.20;99.90;;;11.46;nan;100520.22;4977372;28;20619;-66
2023/04/07 07:25:07;;;;;;;3.53;3.13;;;11.30;99.90;;;11.66;nan;100524.78;4980098;28;21233;-67
2023/04/07 07:27:34;;;;;;;4.83;3.70;;;11.50;99.90;;;11.87;nan;100506.59;4972982;28;20659;-67
2023/04/07 07:30:01;;;;;;;5.67;3.13;;;11.70;99.90;;;12.06;nan;100513.78;4977720;28;20643;-67
2023/04/07 07:32:28;;;;;;;5.43;4.00;;;11.90;99.90;;;12.18;nan;100511.03;4970338;28;20661;-67
2023/04/07 07:34:55;;;;;;;3.70;3.07;;;12.00;99.90;;;12.34;nan;100518.47;4971752;28;20635;-66
2023/04/07 07:37:22;;;;;;;3.47;3.17;;;12.20;99.90;;;12.36;nan;100512.16;4967558;28;21133;-67
2023/04/07 07:39:49;;;;;;;5.63;3.67;;;12.30;99.90;;;12.42;nan;100516.06;4968471;28;20635;-66
2023/04/07 07:42:16;;;;;;;4.60;3.50;;;12.30;99.90;;;12.40;nan;100516.19;4970853;28;20645;-66
2023/04/07 07:44:43;;;;;;;5.47;3.83;;;12.30;99.90;;;12.39;nan;100519.75;4958768;28;20699;-66
2023/04/07 07:47:11;;;;;;;4.83;3.17;;;12.30;99.90;;;12.39;nan;100519.75;4970197;28;20639;-66
2023/04/07 07:49:38;;;;;;;7.23;4.50;;;12.30;99.90;;;12.42;nan;100524.75;5037855;23;20730;-67
2023/04/07 07:52:05;;;;;;;5.27;3.63;;;12.30;99.90;;;12.52;nan;100522.22;5006306;28;20672;-64
2023/04/07 07:54:33;;;;;;;5.27;3.57;;;12.40;99.90;;;12.68;nan;100532.25;5009905;28;20671;-67
2023/04/07 07:57:01;;;;;;;5.50;3.53;;;12.60;99.90;;;12.79;nan;100524.34;5008926;28;20680;-65
2023/04/07 07:59:29;;;;;;;3.20;2.97;;;12.70;99.90;;;12.99;nan;100540.06;4997417;28;21228;-64
2023/04/07 08:01:57;;;;;;;4.97;3.77;;;12.90;99.90;;;13.22;nan;100533.75;4986283;28;20712;-64
2023/04/07 08:04:24;;;;;;;3.57;3.17;;;13.10;99.90;;;13.44;nan;100537.19;4982951;28;20634;-65
2023/04/07 08:06:52;;;;;;;4.17;3.37;;;13.30;99.90;;;13.46;nan;100533.47;4989769;28;21026;-65
2023/04/07 08:09:19;;;;;;;4.13;3.73;;;13.40;99.90;;;13.63;nan;100545.97;5003985;28;20662;-65
2023/04/07 08:11:50;;;;;;;6.13;3.70;;;13.50;99.90;;;13.92;nan;100546.91;4990434;28;20677;-65
2023/04/07 08:14:17;;;;;;;3.63;3.13;;;13.80;99.90;;;14.12;nan;100539.09;4989477;28;20622;-64
2023/04/07 08:16:45;;;;;;;4.30;2.83;;;14.00;99.90;;;14.35;nan;100549.22;4991310;28;20668;-68
2023/04/07 08:19:12;;;;;;;6.30;4.07;;;14.20;99.90;;;14.55;nan;100561.41;4989077;28;20662;-65
2023/04/07 08:21:39;;;;;;;4.30;3.20;;;14.40;99.90;;;14.75;nan;100552.59;4991225;28;20638;-65
2023/04/07 08:24:09;;;;;;;4.63;3.43;;;14.60;99.90;;;14.90;nan;100555.63;4990393;28;20628;-65
2023/04/07 08:26:37;;;;;;;3.80;3.27;;;14.80;99.90;;;14.94;nan;100549.13;4996360;28;21229;-66
2023/04/07 08:29:04;;;;;;;6.93;4.90;;;14.80;99.90;;;15.07;nan;100557.53;5010570;28;20646;-64
2023/04/07 08:31:31;;;;;;;5.73;3.97;;;15.00;99.90;;;15.08;nan;100561.81;5024817;28;20653;-65
2023/04/07 08:33:58;;;;;;;6.23;4.37;;;15.00;99.90;;;15.32;nan;100561.34;4998050;28;20637;-64
2023/04/07 08:36:26;;;;;;;6.30;4.63;;;15.20;99.90;;;15.80;nan;100559.41;4981918;28;20640;-65
2023/04/07 08:38:53;;;;;;;5.30;4.80;;;15.60;99.90;;;16.35;nan;100557.59;4991242;28;20781;-65
2023/04/07 08:41:30;;;;;;;6.60;4.97;;;16.20;99.90;;;16.89;nan;100560.09;4993859;28;21259;-64
2023/04/07 08:43:58;;;;;;;3.50;3.20;;;16.80;99.90;;;17.47;nan;100563.00;4986560;28;21211;-67
2023/04/07 08:46:26;;;;;;;6.50;4.63;;;17.30;99.90;;;18.35;nan;100562.59;4989254;28;20649;-65
2023/04/07 08:48:56;;;;;;;6.00;4.00;;;18.20;99.90;;;19.18;nan;100569.44;4997650;28;21362;-65
2023/04/07 08:51:32;;;;;;;5.43;3.57;;;19.20;99.90;;;19.75;nan;100572.81;4993528;28;20661;-65
2023/04/07 08:54:11;;;;;;;6.83;3.73;;;19.80;99.60;;;20.37;nan;100567.59;4993750;28;20614;-65
2023/04/07 08:56:42;;;;;;;3.47;3.17;;;20.30;97.90;;;20.48;nan;100572.50;5002512;28;20629;-65
2023/04/07 08:59:17;;;;;;;3.57;3.30;;;20.50;96.20;;;20.26;nan;100570.63;5013492;28;20653;-64
2023/04/07 09:01:45;;;;;;;4.57;4.10;;;20.30;95.90;;;19.71;nan;100566.22;5011924;28;20699;-65
2023/04/07 09:04:12;;;;;;;4.73;4.20;;;19.90;95.90;;;19.21;nan;100578.84;5012476;28;20641;-65
2023/04/07 09:06:39;;;;;;;3.80;3.50;;;19.40;96.70;;;18.78;nan;100571.25;5012736;28;20628;-65
2023/04/07 09:09:06;;;;;;;2.93;2.70;;;19.00;97.20;;;18.13;nan;100571.09;5002157;28;20669;-65
2023/04/07 09:11:39;;;;;;;3.23;2.93;;;18.40;98.10;;;17.59;nan;100579.44;4993576;28;21266;-66
2023/04/07 09:14:07;;;;;;;7.13;3.47;;;17.80;99.30;;;16.90;nan;100571.47;4995980;28;20978;-65
2023/04/07 09:16:34;;;;;;;4.27;3.87;;;17.10;99.90;;;16.36;nan;100572.41;5011616;28;20988;-66
2023/04/07 09:19:01;;;;;;;3.30;2.60;;;16.50;99.90;;;15.85;nan;100580.84;4982062;28;21188;-65
2023/04/07 09:21:51;;;;;;;2.33;2.00;;;16.00;99.90;;;15.47;nan;100583.63;4981041;28;21229;-63
2023/04/07 09:24:27;;;;;;;2.23;2.03;;;15.50;99.90;;;15.41;nan;100579.75;4993169;28;20710;-66
2023/04/07 09:27:17;;;;;;;2.40;2.20;;;15.40;99.90;;;15.41;nan;100579.75;4992404;28;20598;-65
2023/04/07 09:29:46;;;;;;;2.20;1.93;;;15.40;99.90;;;15.39;nan;100576.44;5003075;28;21039;-65
2023/04/07 09:32:35;;;;;;;3.10;2.27;;;15.30;99.90;;;15.23;nan;100588.47;5012769;28;21216;-65
2023/04/07 09:35:02;;;;;;;2.70;2.50;;;15.20;99.90;;;14.94;nan;100582.44;5011831;28;20698;-65
2023/04/07 09:37:29;;;;;;;2.17;2.07;;;14.90;99.90;;;14.71;nan;100581.88;5000488;28;20622;-65
2023/04/07 09:39:56;;;;;;;1.70;1.63;;;14.70;99.90;;;14.51;nan;100586.28;5004236;28;20661;-66
2023/04/07 09:42:25;;;;;;;1.90;1.83;;;14.50;99.90;;;14.22;nan;100588.00;5012368;28;20625;-65
2023/04/07 09:44:52;;;;;;;1.83;1.80;;;14.20;99.90;;;13.91;nan;100594.25;5011512;28;20651;-64
2023/04/07 09:47:28;;;;;;;1.57;1.30;;;13.90;99.90;;;13.64;nan;100589.59;5011542;28;20613;-65
2023/04/07 09:49:56;;;;;;;1.17;1.07;;;13.60;99.90;;;13.43;nan;100594.03;4991264;28;20673;-66
2023/04/07 09:52:48;;;;;;;1.43;1.33;;;13.40;99.90;;;13.19;nan;100585.59;4996993;28;20783;-66
2023/04/07 09:55:21;;;;;;;1.20;1.20;;;13.20;99.90;;;13.03;nan;100582.56;4994270;28;20656;-66
2023/04/07 09:57:50;;;;;;;1.33;1.23;;;13.00;99.90;;;12.94;nan;100591.16;4991969;28;20634;-63
2023/04/07 10:00:17;;;;;;;1.10;1.10;;;12.90;99.90;;;12.92;nan;100595.69;4988818;28;20626;-66
2023/04/07 10:02:45;;;;;;;1.20;1.17;;;12.80;99.90;;;12.97;nan;100591.75;4991186;28;20640;-65
2023/04/07 10:05:12;;;;;;;1.13;1.13;;;12.90;99.90;;;13.08;nan;100596.13;5006088;28;20642;-65
2023/04/07 10:07:39;;;;;;;0.73;0.73;;;12.90;99.90;;;13.17;nan;100600.59;4990665;28;20622;-65
2023/04/07 10:10:09;;;;;;;1.60;1.50;;;13.00;99.90;;;13.19;nan;100599.53;4991468;28;20630;-65
2023/04/07 10:12:40;;;;;;;1.70;1.60;;;13.10;99.90;;;13.20;nan;100603.78;4990716;28;20728;-66
2023/04/07 10:15:14;;;;;;;2.37;2.20;;;13.10;99.90;;;13.16;nan;100605.00;5007448;28;21113;-65
2023/04/07 10:17:47;;;;;;;2.00;1.90;;;13.10;99.90;;;13.12;nan;100600.16;4991281;28;21218;-67
2023/04/07 10:20:19;;;;;;;2.53;2.43;;;13.00;99.90;;;12.94;nan;100599.03;4992165;28;20640;-65
2023/04/07 10:22:50;;;;;;;2.57;2.47;;;12.90;99.90;;;12.88;nan;100589.06;4984622;28;21204;-65
2023/04/07 10:25:23;;;;;;;2.80;2.60;;;12.80;99.90;;;12.80;nan;100594.91;4996415;28;21184;-64
2023/04/07 10:27:59;;;;;;;2.50;2.40;;;12.80;99.90;;;12.77;nan;100596.94;4990099;28;20645;-65
2023/04/07 10:30:30;;;;;;;2.40;2.20;;;12.70;99.90;;;12.96;nan;100597.94;4987170;28;20630;-65
2023/04/07 10:32:58;;;;;;;4.10;2.37;;;12.80;99.90;;;13.34;nan;100596.56;4992002;28;20720;-66
2023/04/07 10:35:25;;;;;;;3.63;2.80;;;13.10;99.90;;;14.20;nan;100605.69;4984925;28;20664;-65
2023/04/07 10:38:09;;;;;;;2.87;2.47;;;13.90;99.90;;;15.29;nan;100604.50;4990524;28;21217;-65
2023/04/07 10:40:37;;;;;;;2.33;2.23;;;14.90;99.90;;;16.12;nan;100606.38;4991161;28;21258;-66
2023/04/07 10:43:08;;;;;;;3.60;2.23;;;15.80;99.90;;;16.66;nan;100608.13;4992353;28;20988;-67